Time;durP1;ratioP1;P1;durP2;ratioP2;P2;SDS_P1;SDS_P2;PMS_P1;PMS_P2;Temp;Humidity;BMP_temperature;BMP_pressure;BME280_temperature;BME280_humidity;BME280_pressure;Samples;Min_cycle;Max_cycle;Signal;HPM_P1;HPM_P2
2021/04/05 00:02:15;;;;;;;32.35;18.08;;;5.30;99.90;;;;;;5033463;28;20029;-83
2021/04/05 00:04:41;;;;;;;33.63;16.75;;;5.30;99.90;;;;;;5033350;28;20032;-84
2021/04/05 00:07:08;;;;;;;32.42;18.40;;;5.30;99.90;;;;;;5033382;28;20063;-83
2021/04/05 00:09:33;;;;;;;34.10;18.23;;;5.30;99.90;;;;;;5033058;28;20079;-84
2021/04/05 00:11:59;;;;;;;35.35;18.25;;;5.40;99.90;;;;;;5033382;28;20018;-83
2021/04/05 00:14:26;;;;;;;35.97;17.20;;;5.40;99.90;;;;;;5034530;28;20469;-83
2021/04/05 00:16:52;;;;;;;34.13;17.65;;;5.40;99.90;;;;;;5033148;28;20037;-84
2021/04/05 00:19:19;;;;;;;33.05;17.42;;;5.40;99.90;;;;;;5033067;28;20029;-84
2021/04/05 00:21:44;;;;;;;31.75;20.08;;;5.30;99.90;;;;;;5034476;28;20117;-84
2021/04/05 00:24:10;;;;;;;34.90;17.40;;;5.40;99.90;;;;;;5034342;28;20063;-84
2021/04/05 00:26:36;;;;;;;34.88;18.38;;;5.40;99.90;;;;;;5032752;28;20087;-83
2021/04/05 00:29:01;;;;;;;33.67;18.35;;;5.40;99.90;;;;;;5032837;28;20474;-83
2021/04/05 00:31:27;;;;;;;38.30;20.73;;;5.40;99.90;;;;;;5034162;28;20420;-83
2021/04/05 00:33:53;;;;;;;45.08;20.75;;;5.40;99.90;;;;;;5032946;28;20599;-83
2021/04/05 00:36:18;;;;;;;33.63;19.98;;;5.40;99.90;;;;;;5032898;28;20040;-83
2021/04/05 00:38:44;;;;;;;35.35;18.95;;;5.40;99.90;;;;;;5034277;28;20396;-84
2021/04/05 00:41:12;;;;;;;34.42;20.60;;;5.50;99.90;;;;;;5032759;28;20049;-83
2021/04/05 00:43:40;;;;;;;34.20;18.88;;;5.50;99.90;;;;;;5034214;28;20052;-84
2021/04/05 00:46:06;;;;;;;34.60;20.83;;;5.50;99.90;;;;;;5034467;28;20029;-83
2021/04/05 00:48:33;;;;;;;35.28;20.42;;;5.50;99.90;;;;;;5032638;28;20021;-84
2021/04/05 00:51:12;;;;;;;36.53;19.42;;;5.50;99.90;;;;;;5033908;28;20026;-84
2021/04/05 00:53:41;;;;;;;39.33;20.95;;;5.60;99.90;;;;;;5032461;28;20017;-83
2021/04/05 00:56:08;;;;;;;43.92;21.63;;;5.60;99.90;;;;;;5032358;28;20473;-83
2021/04/05 00:58:34;;;;;;;41.88;21.98;;;5.60;99.90;;;;;;5033653;28;20033;-83
2021/04/05 01:01:04;;;;;;;39.67;20.90;;;5.60;99.90;;;;;;5032416;28;20033;-84
2021/04/05 01:03:35;;;;;;;35.03;21.10;;;5.60;99.90;;;;;;5032173;28;20029;-83
2021/04/05 01:06:21;;;;;;;38.45;20.25;;;5.60;99.90;;;;;;5032305;28;20044;-83
2021/04/05 01:08:47;;;;;;;34.70;19.58;;;5.60;99.90;;;;;;5032113;28;20078;-84
2021/04/05 01:11:15;;;;;;;38.25;20.60;;;5.60;99.90;;;;;;5033419;28;20515;-83
2021/04/05 01:13:41;;;;;;;33.92;19.92;;;5.70;99.90;;;;;;5032199;28;20013;-84
2021/04/05 01:16:07;;;;;;;35.70;19.70;;;5.70;99.90;;;;;;5032120;28;20026;-84
2021/04/05 01:18:34;;;;;;;32.58;19.25;;;5.70;99.90;;;;;;5033575;28;20228;-83
2021/04/05 01:21:01;;;;;;;36.40;19.63;;;5.70;99.90;;;;;;5048485;28;20025;-83
2021/04/05 01:23:26;;;;;;;41.65;20.05;;;5.70;99.90;;;;;;5048582;28;20029;-83
2021/04/05 01:25:52;;;;;;;38.83;20.95;;;5.70;99.90;;;;;;5048247;28;20036;-83
2021/04/05 01:28:18;;;;;;;37.75;20.92;;;5.70;99.90;;;;;;5031909;28;20029;-84
2021/04/05 01:30:52;;;;;;;42.75;21.00;;;5.70;99.90;;;;;;5048401;28;20033;-84
2021/04/05 01:33:23;;;;;;;36.45;19.67;;;5.70;99.90;;;;;;5048381;28;20021;-84
2021/04/05 01:35:55;;;;;;;41.08;20.10;;;5.80;99.90;;;;;;5048435;28;20051;-84
2021/04/05 01:38:31;;;;;;;36.08;19.58;;;5.80;99.90;;;;;;5047963;28;20057;-83
2021/04/05 01:41:00;;;;;;;36.50;19.40;;;5.80;99.90;;;;;;5032589;28;20045;-83
2021/04/05 01:43:26;;;;;;;39.97;18.80;;;5.90;99.90;;;;;;5048282;28;20025;-83
2021/04/05 01:45:54;;;;;;;40.00;19.15;;;5.80;99.90;;;;;;5031700;28;20129;-84
2021/04/05 01:48:22;;;;;;;37.15;18.98;;;5.90;99.90;;;;;;5048324;28;20030;-83
2021/04/05 01:50:48;;;;;;;39.17;20.90;;;5.90;99.90;;;;;;5048222;28;20025;-83
2021/04/05 01:53:18;;;;;;;43.50;19.85;;;5.90;99.90;;;;;;5031625;28;20075;-84
2021/04/05 01:55:44;;;;;;;38.90;18.33;;;5.80;99.90;;;;;;5048172;28;20037;-83
2021/04/05 01:58:09;;;;;;;36.30;19.40;;;5.80;99.90;;;;;;5032722;28;20108;-84
2021/04/05 02:00:39;;;;;;;41.38;18.95;;;5.80;99.90;;;;;;5048108;28;20156;-84
2021/04/05 02:03:08;;;;;;;40.97;18.42;;;5.90;99.90;;;;;;5032727;28;20087;-84
2021/04/05 02:05:43;;;;;;;37.05;17.73;;;5.90;99.90;;;;;;5048049;28;20143;-83
2021/04/05 02:08:09;;;;;;;42.20;18.65;;;5.90;99.90;;;;;;5031541;28;20025;-84
2021/04/05 02:10:35;;;;;;;41.80;17.90;;;5.90;99.90;;;;;;5048038;28;20362;-83
2021/04/05 02:13:01;;;;;;;41.00;18.88;;;5.90;99.90;;;;;;5047971;28;20116;-83
2021/04/05 02:15:27;;;;;;;38.58;19.40;;;5.90;99.90;;;;;;5044872;28;20045;-83
2021/04/05 02:17:53;;;;;;;34.78;17.40;;;5.90;99.90;;;;;;5032634;28;20030;-84
2021/04/05 02:20:19;;;;;;;35.88;18.05;;;5.90;99.90;;;;;;5031339;28;20048;-83
2021/04/05 02:22:52;;;;;;;38.97;18.70;;;5.90;99.90;;;;;;5032726;28;20049;-84
2021/04/05 02:25:19;;;;;;;43.05;19.13;;;5.90;99.90;;;;;;5031393;28;20021;-84
2021/04/05 02:27:47;;;;;;;38.13;17.20;;;5.90;99.90;;;;;;5031267;28;20025;-83
2021/04/05 02:30:22;;;;;;;38.17;17.73;;;6.00;99.90;;;;;;5031253;28;20057;-84
2021/04/05 02:33:08;;;;;;;37.08;18.08;;;6.00;99.90;;;;;;5031294;28;20072;-84
2021/04/05 02:35:34;;;;;;;41.08;17.77;;;6.10;99.90;;;;;;5030818;28;20095;-83
2021/04/05 02:38:03;;;;;;;40.20;17.58;;;6.00;99.90;;;;;;5031341;28;20030;-84
2021/04/05 02:40:31;;;;;;;49.47;18.48;;;6.00;99.90;;;;;;5031011;28;20045;-84
2021/04/05 02:42:58;;;;;;;43.33;19.75;;;6.00;99.90;;;;;;5031089;28;20029;-83
2021/04/05 02:45:25;;;;;;;39.65;18.05;;;6.00;99.90;;;;;;5031122;28;20580;-84
2021/04/05 02:47:57;;;;;;;41.63;19.27;;;5.90;99.90;;;;;;5031198;28;20033;-84
2021/04/05 02:50:29;;;;;;;47.45;18.80;;;5.90;99.90;;;;;;5032151;28;20029;-84
2021/04/05 02:52:57;;;;;;;40.53;19.23;;;5.90;99.90;;;;;;5034829;28;20025;-83
2021/04/05 02:55:23;;;;;;;33.00;18.73;;;5.90;99.90;;;;;;5034787;28;20028;-83
2021/04/05 02:57:49;;;;;;;46.53;20.33;;;5.90;99.90;;;;;;5034815;28;20026;-83
2021/04/05 03:00:18;;;;;;;40.83;19.90;;;5.90;99.90;;;;;;5034719;28;20025;-84
2021/04/05 03:02:47;;;;;;;40.58;20.42;;;5.90;99.90;;;;;;5048507;28;20025;-82
2021/04/05 03:05:20;;;;;;;40.75;20.02;;;5.90;99.90;;;;;;5059278;28;20005;-83
2021/04/05 03:07:46;;;;;;;49.60;21.05;;;5.90;99.90;;;;;;5058682;28;20048;-82
2021/04/05 03:10:13;;;;;;;50.92;21.73;;;5.90;99.90;;;;;;5046779;28;20018;-83
2021/04/05 03:12:40;;;;;;;45.67;22.17;;;5.90;99.90;;;;;;5034738;28;20048;-84
2021/04/05 03:15:09;;;;;;;46.00;21.20;;;5.90;99.90;;;;;;5034260;28;20017;-83
2021/04/05 03:17:36;;;;;;;48.70;21.25;;;5.90;99.90;;;;;;5050984;28;20032;-84
2021/04/05 03:20:08;;;;;;;54.83;22.88;;;5.90;99.90;;;;;;5035607;28;20108;-83
2021/04/05 03:22:35;;;;;;;51.28;20.52;;;5.90;99.90;;;;;;5034494;28;20064;-84
2021/04/05 03:25:02;;;;;;;47.75;22.00;;;5.90;99.90;;;;;;5034087;28;20119;-83
2021/04/05 03:27:27;;;;;;;45.72;21.38;;;6.00;99.90;;;;;;5034275;28;20025;-84
2021/04/05 03:29:55;;;;;;;53.38;20.75;;;6.00;99.90;;;;;;5050814;28;20072;-84
2021/04/05 03:32:23;;;;;;;52.33;21.27;;;6.10;99.90;;;;;;5050679;28;20094;-83
2021/04/05 03:34:55;;;;;;;39.67;21.63;;;6.10;99.90;;;;;;5035055;28;20026;-84
2021/04/05 03:37:23;;;;;;;46.50;21.80;;;6.20;99.90;;;;;;5034036;28;20028;-84
2021/04/05 03:39:50;;;;;;;52.33;22.85;;;6.20;99.90;;;;;;5050537;28;20021;-83
2021/04/05 03:42:30;;;;;;;55.33;22.80;;;6.30;99.90;;;;;;5035034;28;20041;-83
2021/04/05 03:45:22;;;;;;;51.78;22.80;;;6.40;99.90;;;;;;5034807;28;20031;-84
2021/04/05 03:48:12;;;;;;;48.75;22.23;;;6.40;99.90;;;;;;5050345;28;20025;-84
2021/04/05 03:50:46;;;;;;;46.17;22.17;;;6.40;99.90;;;;;;5035021;28;20064;-83
2021/04/05 03:53:27;;;;;;;49.85;22.25;;;6.50;99.90;;;;;;5035010;28;20021;-84
2021/04/05 03:55:58;;;;;;;47.40;22.05;;;6.50;99.90;;;;;;5050330;28;20071;-84
2021/04/05 03:58:28;;;;;;;48.08;23.70;;;6.60;99.90;;;;;;5033760;28;20033;-84
2021/04/05 04:00:59;;;;;;;49.10;22.33;;;6.60;99.90;;;;;;5047634;28;20025;-84
2021/04/05 04:03:32;;;;;;;49.42;22.58;;;6.70;99.90;;;;;;5032375;28;20074;-84
2021/04/05 04:06:02;;;;;;;47.30;20.98;;;6.70;99.90;;;;;;5032397;28;20075;-84
2021/04/05 04:08:38;;;;;;;51.72;21.73;;;6.70;99.90;;;;;;5033307;28;20037;-84
2021/04/05 04:11:09;;;;;;;42.20;20.13;;;6.80;99.90;;;;;;5033313;28;20037;-84
2021/04/05 04:13:43;;;;;;;42.17;21.38;;;6.80;99.90;;;;;;5033236;28;20112;-84
2021/04/05 04:16:11;;;;;;;45.22;21.02;;;6.80;99.90;;;;;;5034326;28;20060;-84
2021/04/05 04:18:37;;;;;;;45.65;20.17;;;6.90;99.90;;;;;;5033150;28;20033;-83
2021/04/05 04:21:09;;;;;;;48.60;22.13;;;6.90;99.90;;;;;;5032984;28;20500;-83
2021/04/05 04:23:36;;;;;;;45.88;20.95;;;7.00;99.90;;;;;;5033091;28;20521;-84
2021/04/05 04:26:03;;;;;;;47.30;22.00;;;7.00;99.90;;;;;;5033051;28;20067;-84
2021/04/05 04:28:29;;;;;;;55.38;21.08;;;7.00;99.90;;;;;;5032903;28;20029;-84
2021/04/05 04:30:56;;;;;;;42.15;19.67;;;7.00;99.90;;;;;;5032476;28;20383;-83
2021/04/05 04:33:26;;;;;;;43.70;20.33;;;7.00;99.90;;;;;;5032773;28;20018;-84
2021/04/05 04:35:51;;;;;;;53.13;21.20;;;7.00;99.90;;;;;;5032813;28;20021;-84
2021/04/05 04:38:23;;;;;;;47.67;21.65;;;7.00;99.90;;;;;;5034206;28;20140;-84
2021/04/05 04:40:49;;;;;;;38.22;20.77;;;7.10;99.90;;;;;;5032682;28;20132;-84
2021/04/05 04:43:15;;;;;;;45.53;20.02;;;7.10;99.90;;;;;;5032683;28;20068;-84
2021/04/05 04:45:41;;;;;;;39.47;19.92;;;7.10;99.90;;;;;;5025724;28;20026;-83
2021/04/05 04:48:07;;;;;;;48.58;21.02;;;7.10;99.90;;;;;;5017495;28;20047;-84
2021/04/05 04:50:33;;;;;;;56.83;21.48;;;7.10;99.90;;;;;;5033046;28;20029;-84
2021/04/05 04:52:59;;;;;;;45.15;20.80;;;7.20;99.90;;;;;;5029501;28;20025;-83
2021/04/05 04:55:26;;;;;;;50.10;22.80;;;7.20;99.90;;;;;;5031911;28;20022;-83
2021/04/05 04:57:55;;;;;;;52.22;22.92;;;7.20;99.90;;;;;;5033159;28;20369;-84
2021/04/05 05:00:23;;;;;;;53.87;22.00;;;7.20;99.90;;;;;;5032249;28;20029;-84
2021/04/05 05:02:49;;;;;;;48.30;20.63;;;7.10;99.90;;;;;;5015820;28;20087;-84
2021/04/05 05:05:17;;;;;;;44.03;22.23;;;7.00;99.90;;;;;;5032033;28;20104;-84
2021/04/05 05:07:43;;;;;;;44.42;21.63;;;7.00;99.90;;;;;;5032302;28;20030;-84
2021/04/05 05:10:11;;;;;;;49.53;21.90;;;6.90;99.90;;;;;;5032344;28;20025;-84
2021/04/05 05:12:41;;;;;;;49.13;22.98;;;6.90;99.90;;;;;;5032206;28;20022;-84
2021/04/05 05:15:09;;;;;;;52.25;23.27;;;6.90;99.90;;;;;;5031103;28;20045;-84
2021/04/05 05:17:38;;;;;;;49.60;22.30;;;6.90;99.90;;;;;;5033223;28;20084;-84
2021/04/05 05:20:04;;;;;;;45.27;22.87;;;6.80;99.90;;;;;;5032841;28;20476;-84
2021/04/05 05:22:31;;;;;;;55.00;24.30;;;6.80;99.90;;;;;;5031931;28;20428;-84
2021/04/05 05:24:58;;;;;;;51.00;22.42;;;6.80;99.90;;;;;;5031875;28;20025;-84
2021/04/05 05:27:25;;;;;;;53.80;22.98;;;6.80;99.90;;;;;;5033289;28;20053;-84
2021/04/05 05:29:51;;;;;;;46.17;23.67;;;6.80;99.90;;;;;;5033298;28;20056;-84
2021/04/05 05:32:18;;;;;;;44.35;22.27;;;6.80;99.90;;;;;;5031798;28;20108;-84
2021/04/05 05:34:46;;;;;;;50.25;24.02;;;6.90;99.90;;;;;;5031814;28;20112;-84
2021/04/05 05:37:14;;;;;;;55.17;22.95;;;6.90;99.90;;;;;;5031984;28;20075;-84
2021/04/05 05:39:41;;;;;;;56.45;21.75;;;6.90;99.90;;;;;;5031882;28;20078;-84
2021/04/05 05:42:36;;;;;;;44.05;21.98;;;7.00;99.90;;;;;;5031286;28;20184;-88
2021/04/05 05:45:09;;;;;;;49.97;20.83;;;7.10;99.90;;;;;;5038192;28;20084;-89
2021/04/05 05:48:04;;;;;;;46.17;22.63;;;7.10;99.90;;;;;;5026581;28;20123;-88
2021/04/05 05:50:45;;;;;;;43.55;21.75;;;7.20;99.90;;;;;;5041295;28;20105;-88
2021/04/05 05:53:46;;;;;;;43.92;20.52;;;7.20;99.90;;;;;;5026249;28;20036;-88
2021/04/05 05:56:39;;;;;;;43.67;20.45;;;7.30;99.90;;;;;;5031356;28;20025;-88
2021/04/05 05:59:46;;;;;;;24.38;12.27;;;7.30;99.90;;;;;;5030677;28;20025;-88
2021/04/05 06:02:38;;;;;;;16.35;5.07;;;7.30;99.90;;;;;;5009726;28;20033;-88
2021/04/05 06:05:41;;;;;;;5.63;2.95;;;7.10;99.90;;;;;;5030237;28;20052;-88
2021/04/05 06:08:19;;;;;;;4.95;1.20;;;6.80;99.90;;;;;;5031647;28;20034;-91
2021/04/05 06:11:09;;;;;;;2.72;0.70;;;6.50;99.90;;;;;;5031751;28;20018;-89
2021/04/05 06:13:44;;;;;;;4.65;0.98;;;6.40;99.90;;;;;;5031449;28;20017;-89
2021/04/05 06:16:09;;;;;;;2.75;0.88;;;6.20;99.90;;;;;;5032091;28;20116;-90
2021/04/05 06:18:59;;;;;;;5.32;0.63;;;6.20;99.90;;;;;;5032021;28;20076;-90
2021/04/05 06:21:49;;;;;;;4.85;0.80;;;6.20;99.90;;;;;;5022214;28;20024;-88
2021/04/05 06:24:40;;;;;;;6.35;0.70;;;6.10;99.90;;;;;;5022352;28;20022;-86
2021/04/05 06:27:27;;;;;;;4.55;0.70;;;6.00;99.90;;;;;;5029238;28;20056;-88
2021/04/05 06:30:04;;;;;;;11.35;1.83;;;6.00;99.90;;;;;;5032729;28;20087;-89
2021/04/05 06:32:50;;;;;;;9.13;1.48;;;5.90;99.90;;;;;;5034274;28;20104;-89
2021/04/05 06:35:35;;;;;;;9.45;1.02;;;5.90;99.90;;;;;;5025871;28;20470;-89
2021/04/05 06:38:30;;;;;;;11.00;1.52;;;5.90;99.90;;;;;;5034190;28;20018;-89
2021/04/05 06:41:00;;;;;;;10.63;1.58;;;5.90;99.90;;;;;;5032655;28;20069;-88
2021/04/05 06:43:47;;;;;;;5.25;1.33;;;5.80;99.90;;;;;;5031018;28;20018;-88
2021/04/05 06:46:20;;;;;;;5.80;1.48;;;5.80;99.90;;;;;;5032979;28;20032;-88
2021/04/05 06:49:17;;;;;;;7.80;1.33;;;5.80;99.90;;;;;;5034397;28;20499;-88
2021/04/05 06:52:14;;;;;;;6.95;1.27;;;5.80;99.90;;;;;;5033840;28;20056;-87
2021/04/05 06:55:01;;;;;;;6.60;1.08;;;5.80;99.90;;;;;;5034805;28;20018;-86
2021/04/05 06:58:06;;;;;;;4.50;0.93;;;5.80;99.90;;;;;;5028880;28;20021;-86
2021/04/05 07:00:41;;;;;;;12.05;2.67;;;5.90;99.90;;;;;;5032746;28;20036;-90
2021/04/05 07:03:10;;;;;;;6.80;1.00;;;5.90;99.90;;;;;;5035906;28;20056;-89
2021/04/05 07:06:08;;;;;;;8.25;1.30;;;6.00;99.90;;;;;;5035159;28;20427;-90
2021/04/05 07:08:33;;;;;;;4.53;1.00;;;6.00;99.90;;;;;;5015908;28;20026;-88
2021/04/05 07:11:07;;;;;;;3.58;0.60;;;5.90;99.90;;;;;;5031830;28;20436;-88
2021/04/05 07:13:45;;;;;;;5.95;1.25;;;6.00;99.90;;;;;;5031415;28;20037;-87
2021/04/05 07:16:22;;;;;;;3.42;0.80;;;6.00;99.90;;;;;;5043927;28;20393;-86
2021/04/05 07:19:12;;;;;;;7.55;1.38;;;6.00;99.90;;;;;;5034496;28;20021;-86
2021/04/05 07:22:15;;;;;;;9.20;1.08;;;6.00;99.90;;;;;;5033009;28;20124;-85
2021/04/05 07:25:02;;;;;;;6.00;0.95;;;6.00;99.90;;;;;;5035755;28;20030;-89
2021/04/05 07:27:37;;;;;;;4.22;0.60;;;5.80;99.90;;;;;;5039105;28;20025;-87
2021/04/05 07:30:13;;;;;;;2.67;0.40;;;5.60;99.90;;;;;;5042706;28;20025;-87
2021/04/05 07:33:18;;;;;;;6.90;0.60;;;5.50;99.90;;;;;;5022151;28;20063;-84
2021/04/05 07:35:51;;;;;;;4.38;0.68;;;5.30;99.90;;;;;;5034292;28;20025;-83
2021/04/05 07:38:19;;;;;;;4.25;0.85;;;5.20;99.90;;;;;;5030673;28;20026;-85
2021/04/05 07:41:00;;;;;;;7.22;0.40;;;5.20;99.90;;;;;;5032518;28;20046;-82
2021/04/05 07:43:38;;;;;;;5.97;0.77;;;5.10;99.90;;;;;;5044027;28;20144;-82
2021/04/05 07:46:32;;;;;;;4.68;0.60;;;4.90;99.90;;;;;;5022301;28;20115;-83
2021/04/05 07:49:01;;;;;;;8.57;1.02;;;4.90;99.90;;;;;;5031554;28;20029;-82
2021/04/05 07:51:57;;;;;;;7.80;0.82;;;4.80;99.90;;;;;;5032870;28;20120;-82
2021/04/05 07:54:26;;;;;;;7.85;1.20;;;4.80;99.90;;;;;;5034886;28;20029;-84
2021/04/05 07:57:03;;;;;;;8.05;1.60;;;4.80;99.90;;;;;;5035053;28;20021;-83
2021/04/05 07:59:50;;;;;;;6.18;1.15;;;4.80;99.90;;;;;;5046412;28;20072;-83
2021/04/05 08:02:27;;;;;;;11.02;2.05;;;4.80;99.90;;;;;;5039949;28;20025;-81
2021/04/05 08:05:36;;;;;;;11.38;3.38;;;4.80;99.90;;;;;;5044059;28;20021;-83
2021/04/05 08:08:36;;;;;;;12.68;1.40;;;4.60;99.90;;;;;;5026675;28;20080;-82
2021/04/05 08:11:10;;;;;;;15.95;2.00;;;4.50;99.90;;;;;;5043373;28;20037;-83
2021/04/05 08:13:51;;;;;;;14.68;2.08;;;4.50;99.90;;;;;;5046402;28;20029;-83
2021/04/05 08:16:34;;;;;;;15.13;1.60;;;4.60;99.90;;;;;;5044066;28;20022;-83
2021/04/05 08:19:12;;;;;;;12.35;2.15;;;4.60;99.90;;;;;;5032980;28;20060;-84
2021/04/05 08:21:54;;;;;;;11.93;1.27;;;4.50;99.90;;;;;;5030188;28;20026;-84
2021/04/05 08:24:38;;;;;;;10.48;1.45;;;4.60;99.90;;;;;;5047916;28;20136;-85
2021/04/05 08:27:18;;;;;;;10.48;1.85;;;4.70;99.90;;;;;;5045483;28;20505;-83
2021/04/05 08:29:54;;;;;;;17.90;2.50;;;4.80;99.90;;;;;;5028257;28;20088;-83
2021/04/05 08:32:49;;;;;;;15.25;2.35;;;4.80;99.20;;;;;;5031739;28;20014;-82
2021/04/05 08:35:20;;;;;;;11.98;2.50;;;4.80;98.90;;;;;;5045095;28;20028;-86
2021/04/05 08:38:09;;;;;;;8.00;1.55;;;4.90;98.60;;;;;;5032182;28;20022;-82
2021/04/05 08:40:48;;;;;;;10.73;1.58;;;5.00;98.70;;;;;;5043038;28;20044;-82
2021/04/05 08:43:32;;;;;;;14.50;1.92;;;5.20;98.90;;;;;;5031037;28;20368;-82
2021/04/05 08:46:16;;;;;;;13.95;1.85;;;5.20;97.40;;;;;;5030646;28;20025;-83
2021/04/05 08:48:45;;;;;;;16.48;2.00;;;5.30;97.50;;;;;;5046657;28;20133;-83
2021/04/05 08:51:24;;;;;;;11.40;1.95;;;5.40;97.60;;;;;;5040698;28;20550;-83
2021/04/05 08:53:55;;;;;;;11.48;2.15;;;5.60;96.80;;;;;;5029173;28;20107;-83
2021/04/05 08:56:25;;;;;;;17.48;1.67;;;5.70;95.90;;;;;;5043208;28;20485;-82
2021/04/05 08:59:05;;;;;;;11.45;1.50;;;5.80;94.80;;;;;;5027523;28;20025;-85
2021/04/05 09:01:56;;;;;;;12.40;1.80;;;5.80;94.50;;;;;;5030006;28;20013;-83
2021/04/05 09:04:24;;;;;;;16.15;1.60;;;6.00;93.80;;;;;;5046336;28;20013;-83
2021/04/05 09:07:12;;;;;;;15.60;3.67;;;6.20;92.80;;;;;;5027590;28;20101;-83
2021/04/05 09:09:39;;;;;;;6.60;1.75;;;6.30;91.30;;;;;;5043000;28;20469;-83
2021/04/05 09:12:06;;;;;;;11.82;1.58;;;6.30;90.60;;;;;;5037748;28;20024;-83
2021/04/05 09:14:46;;;;;;;8.10;1.50;;;6.40;90.00;;;;;;5029604;28;20171;-83
2021/04/05 09:17:40;;;;;;;12.45;1.55;;;6.30;88.80;;;;;;5044858;28;20112;-84
2021/04/05 09:20:41;;;;;;;6.05;1.08;;;6.30;89.80;;;;;;5045810;28;20026;-85
2021/04/05 09:23:53;;;;;;;6.43;2.28;;;6.40;90.20;;;;;;5044802;28;20103;-83
2021/04/05 09:26:54;;;;;;;4.97;1.00;;;6.40;88.00;;;;;;5021332;28;20025;-83
2021/04/05 09:29:53;;;;;;;6.57;0.98;;;6.50;88.10;;;;;;5008027;28;20144;-83
2021/04/05 09:32:35;;;;;;;7.93;0.85;;;6.70;85.80;;;;;;5044796;28;20017;-84
2021/04/05 09:35:19;;;;;;;6.15;0.85;;;6.50;82.60;;;;;;5025862;28;20123;-83
2021/04/05 09:37:58;;;;;;;4.75;0.98;;;6.30;84.30;;;;;;5021854;28;20029;-83
2021/04/05 09:40:31;;;;;;;4.00;0.40;;;6.00;88.60;;;;;;5028654;28;20103;-83
2021/04/05 09:43:31;;;;;;;2.53;0.32;;;5.40;92.60;;;;;;5043061;28;20129;-83
2021/04/05 09:46:15;;;;;;;1.60;0.38;;;4.90;95.60;;;;;;5025405;28;20033;-84
2021/04/05 09:48:49;;;;;;;2.17;0.38;;;4.50;98.30;;;;;;5031414;28;20044;-83
2021/04/05 09:51:42;;;;;;;3.25;0.40;;;4.60;99.90;;;;;;5037639;28;20045;-83
2021/04/05 09:54:27;;;;;;;1.50;0.32;;;4.80;99.90;;;;;;5040346;28;20118;-84
2021/04/05 09:56:57;;;;;;;3.53;0.40;;;5.10;99.90;;;;;;5044465;28;20014;-83
2021/04/05 09:59:44;;;;;;;3.70;0.63;;;5.20;99.90;;;;;;5025395;28;20806;-84
2021/04/05 10:02:14;;;;;;;3.58;0.50;;;5.40;99.30;;;;;;5033983;28;20029;-82
2021/04/05 10:04:43;;;;;;;4.78;0.70;;;5.50;97.70;;;;;;5033038;28;20079;-82
2021/04/05 10:07:11;;;;;;;4.35;0.88;;;5.40;96.10;;;;;;5048805;28;20029;-82
2021/04/05 10:09:37;;;;;;;8.65;1.95;;;5.30;95.50;;;;;;5032604;28;20029;-82
2021/04/05 10:12:05;;;;;;;4.55;1.02;;;5.30;94.50;;;;;;5050052;28;20523;-82
2021/04/05 10:14:33;;;;;;;4.07;0.60;;;5.40;93.80;;;;;;5049748;28;20980;-81
2021/04/05 10:16:59;;;;;;;3.20;0.60;;;5.50;93.80;;;;;;5031246;28;20352;-82
2021/04/05 10:19:32;;;;;;;3.55;0.70;;;5.60;93.60;;;;;;5032226;28;20381;-82
2021/04/05 10:22:02;;;;;;;6.22;0.70;;;5.70;93.70;;;;;;5025919;28;20026;-86
2021/04/05 10:24:31;;;;;;;6.00;1.17;;;5.80;93.10;;;;;;5028911;28;20037;-85
2021/04/05 10:26:58;;;;;;;2.53;0.57;;;5.90;92.40;;;;;;5027420;28;20481;-82
2021/04/05 10:29:33;;;;;;;5.65;1.00;;;6.00;92.30;;;;;;5026756;28;20464;-82
2021/04/05 10:32:02;;;;;;;5.05;0.90;;;6.20;92.30;;;;;;5027948;28;20022;-85
2021/04/05 10:34:29;;;;;;;3.25;0.80;;;6.40;91.50;;;;;;5030963;28;20071;-82
2021/04/05 10:37:01;;;;;;;6.30;0.88;;;6.40;90.50;;;;;;5035435;28;20078;-82
2021/04/05 10:39:28;;;;;;;9.25;1.13;;;6.30;90.60;;;;;;5022274;28;20036;-85
2021/04/05 10:42:06;;;;;;;4.18;0.82;;;5.80;91.30;;;;;;5036463;28;20045;-82
2021/04/05 10:44:37;;;;;;;5.75;0.90;;;5.30;92.80;;;;;;5034121;28;20480;-83
2021/04/05 10:47:11;;;;;;;5.07;0.95;;;4.90;94.80;;;;;;5033868;28;20098;-83
2021/04/05 10:49:40;;;;;;;5.03;1.02;;;4.70;96.20;;;;;;5050375;28;20029;-83
2021/04/05 10:52:06;;;;;;;4.38;1.17;;;4.90;97.10;;;;;;5050906;28;20017;-83
2021/04/05 10:54:43;;;;;;;4.90;0.88;;;5.40;96.20;;;;;;5033879;28;20029;-83
2021/04/05 10:57:16;;;;;;;7.53;1.10;;;5.60;93.90;;;;;;5035336;28;20022;-83
2021/04/05 10:59:45;;;;;;;5.13;0.70;;;5.50;92.80;;;;;;5035752;28;20405;-82
2021/04/05 11:02:19;;;;;;;3.38;0.60;;;5.00;93.30;;;;;;5034073;28;20028;-84
2021/04/05 11:04:52;;;;;;;8.75;0.60;;;4.60;94.10;;;;;;5033650;28;20432;-84
2021/04/05 11:07:22;;;;;;;7.55;0.95;;;4.80;95.00;;;;;;5050560;28;20025;-86
2021/04/05 11:09:49;;;;;;;2.35;0.70;;;7.10;94.80;;;;;;5033767;28;20028;-85
2021/04/05 11:12:19;;;;;;;6.82;1.35;;;9.10;90.20;;;;;;5050282;28;20036;-87
2021/04/05 11:14:46;;;;;;;;;;;11.10;84.40;;;;;;5034179;28;20029;-85
2021/04/05 11:17:13;;;;;;;7.10;1.02;;;12.40;69.40;;;;;;5033805;28;19905;-83
2021/04/05 11:19:48;;;;;;;6.18;1.10;;;13.30;66.60;;;;;;5034912;28;20095;-86
2021/04/05 11:22:24;;;;;;;5.50;1.35;;;13.00;58.60;;;;;;5033282;28;20401;-81
2021/04/05 11:25:01;;;;;;;6.00;1.75;;;13.40;57.00;;;;;;5032227;28;20108;-84
2021/04/05 11:27:29;;;;;;;6.18;1.25;;;12.50;55.00;;;;;;5048632;28;20150;-83
2021/04/05 11:29:58;;;;;;;3.08;0.80;;;11.10;56.20;;;;;;5032965;28;20140;-87
2021/04/05 11:32:28;;;;;;;8.50;1.20;;;10.10;59.50;;;;;;5033634;28;20124;-85
2021/04/05 11:34:57;;;;;;;5.72;0.90;;;9.30;60.20;;;;;;5033631;28;20268;-88
2021/04/05 11:37:28;;;;;;;4.60;0.77;;;8.50;62.80;;;;;;5035478;28;20038;-88
2021/04/05 11:40:09;;;;;;;6.72;1.10;;;7.90;63.50;;;;;;5033214;28;20112;-87
2021/04/05 11:42:42;;;;;;;4.75;1.15;;;8.10;63.50;;;;;;5023522;28;20058;-87
2021/04/05 11:45:09;;;;;;;3.10;0.75;;;10.20;61.70;;;;;;5032661;28;20037;-87
2021/04/05 11:47:39;;;;;;;5.35;0.95;;;12.60;58.30;;;;;;5032674;28;20112;-87
2021/04/05 11:50:17;;;;;;;5.22;0.75;;;14.60;55.60;;;;;;5033462;28;20026;-87
2021/04/05 11:52:54;;;;;;;5.30;1.50;;;15.00;48.50;;;;;;5033162;28;20026;-87
2021/04/05 11:55:23;;;;;;;5.43;0.93;;;13.90;45.90;;;;;;5033992;28;20022;-89
2021/04/05 11:57:52;;;;;;;4.43;1.40;;;13.70;47.10;;;;;;5033558;28;20117;-92
2021/04/05 12:00:23;;;;;;;7.60;2.00;;;14.10;48.00;;;;;;5038253;28;20486;-85
2021/04/05 12:02:53;;;;;;;8.10;2.00;;;14.50;45.00;;;;;;5032150;28;20079;-86
2021/04/05 12:05:30;;;;;;;5.35;1.38;;;14.80;45.30;;;;;;5045171;28;20022;-86
2021/04/05 12:08:05;;;;;;;6.72;1.20;;;15.80;44.80;;;;;;5032797;28;20025;-86
2021/04/05 12:10:31;;;;;;;5.60;1.27;;;15.50;41.50;;;;;;5037881;28;20033;-87
2021/04/05 12:13:04;;;;;;;6.38;0.77;;;13.60;41.70;;;;;;5031761;28;20026;-86
2021/04/05 12:15:31;;;;;;;5.95;0.90;;;12.30;44.10;;;;;;5032354;28;20030;-87
2021/04/05 12:17:58;;;;;;;4.70;0.85;;;10.80;48.20;;;;;;5025453;28;20511;-86
2021/04/05 12:20:26;;;;;;;6.03;1.27;;;9.80;53.00;;;;;;5021972;28;20022;-87
2021/04/05 12:22:54;;;;;;;9.00;0.85;;;9.00;54.10;;;;;;5029610;28;20022;-87
2021/04/05 12:25:43;;;;;;;7.93;1.20;;;8.50;56.50;;;;;;5029000;28;20080;-86
2021/04/05 12:28:10;;;;;;;6.82;1.00;;;8.60;55.30;;;;;;5031813;28;20025;-86
2021/04/05 12:30:38;;;;;;;9.13;1.42;;;9.30;55.40;;;;;;5021244;28;20045;-86
2021/04/05 12:33:05;;;;;;;4.60;0.60;;;10.80;53.50;;;;;;5030982;28;20423;-86
2021/04/05 12:35:32;;;;;;;5.43;0.70;;;10.20;51.90;;;;;;5024828;28;20021;-86
2021/04/05 12:38:00;;;;;;;4.38;0.88;;;8.90;55.00;;;;;;5032221;28;20504;-86
2021/04/05 12:40:29;;;;;;;6.95;0.55;;;8.10;59.30;;;;;;5032456;28;20453;-86
2021/04/05 12:43:09;;;;;;;3.00;0.60;;;8.50;62.90;;;;;;5033522;28;20037;-86
2021/04/05 12:45:36;;;;;;;2.97;0.68;;;10.30;63.90;;;;;;5031081;28;20377;-86
2021/04/05 12:48:03;;;;;;;5.53;1.00;;;12.20;60.80;;;;;;5030302;28;20045;-87
2021/04/05 12:50:33;;;;;;;5.43;1.25;;;13.80;55.60;;;;;;5032399;28;20029;-85
2021/04/05 12:53:05;;;;;;;5.88;0.93;;;14.40;50.70;;;;;;5032932;28;20024;-85
2021/04/05 12:55:39;;;;;;;2.35;0.55;;;13.10;44.60;;;;;;5031015;28;20087;-86
2021/04/05 12:58:05;;;;;;;4.72;0.70;;;12.30;47.40;;;;;;5033117;28;20025;-86
2021/04/05 13:00:31;;;;;;;3.75;0.88;;;12.50;46.50;;;;;;5031303;28;20072;-85
2021/04/05 13:03:00;;;;;;;4.72;0.85;;;12.00;47.10;;;;;;5032136;28;20029;-89
2021/04/05 13:05:29;;;;;;;5.65;0.98;;;11.60;49.30;;;;;;5048505;28;20056;-86
2021/04/05 13:08:04;;;;;;;2.13;0.60;;;11.90;49.90;;;;;;5028581;28;20022;-84
2021/04/05 13:10:48;;;;;;;4.97;1.08;;;12.20;49.80;;;;;;5036930;28;20036;-84
2021/04/05 13:13:19;;;;;;;4.28;0.90;;;12.00;47.90;;;;;;5028945;28;20022;-84
2021/04/05 13:15:46;;;;;;;4.15;0.88;;;12.00;48.10;;;;;;5023844;28;20022;-84
2021/04/05 13:18:24;;;;;;;4.50;0.68;;;11.70;48.60;;;;;;5031417;28;20025;-84
2021/04/05 13:20:57;;;;;;;5.68;1.67;;;12.40;47.20;;;;;;5013931;28;20025;-84